This is the latest recevied weather packets stored in our database for station/object W8CWV-13. If no packets are shown the sender has not sent any weather packets the latest 10 day(s).
| Time | Temp. | Humidity | Pressure | Rain* | Wind** | Luminosity | Snow |
|---|---|---|---|---|---|---|---|
| 1778207595 | 13.33° C | 100% | 1021.5 hPa | - | - | - | - |
| 1778207021 | 13.89° C | 100% | 1021.3 hPa | - | - | - | - |
| 1778206450 | 13.89° C | 100% | 1021.1 hPa | - | - | - | - |
| 1778205879 | 13.89° C | 100% | 1020.9 hPa | - | - | - | - |
| 1778205305 | 13.33° C | 100% | 1021 hPa | - | - | - | - |
| 1778204728 | 13.89° C | 100% | 1020.9 hPa | - | - | - | - |
| 1778204159 | 13.33° C | 100% | 1021 hPa | - | - | - | - |
| 1778203584 | 14.44° C | 100% | 1020.8 hPa | - | - | - | - |
| 1778203018 | 14.44° C | 100% | 1020.5 hPa | - | - | - | - |
| 1778202444 | 15° C | 100% | 1020.3 hPa | - | - | - | - |
| 1778201866 | 15° C | 100% | 1020.1 hPa | - | - | - | - |
| 1778201299 | 14.44° C | 100% | 1020.2 hPa | - | - | - | - |
| 1778200726 | 15° C | 100% | 1020.1 hPa | - | - | - | - |
| 1778200154 | 15.56° C | 100% | 1019.8 hPa | - | - | - | - |
| 1778199582 | 16.11° C | 100% | 1019.6 hPa | - | - | - | - |
| 1778199011 | 16.11° C | 100% | 1019.4 hPa | - | - | - | - |
| 1778198436 | 16.67° C | 100% | 1019.2 hPa | - | - | - | - |
| 1778197868 | 16.67° C | 100% | 1019 hPa | - | - | - | - |
| 1778197291 | 17.22° C | 100% | 1018.9 hPa | - | - | - | - |
| 1778196720 | 17.22° C | 100% | 1018.8 hPa | - | - | - | - |
| 1778196150 | 17.78° C | 100% | 1018.7 hPa | - | - | - | - |
| 1778195577 | 17.78° C | 100% | 1018.6 hPa | - | - | - | - |
| 1778194430 | 18.89° C | 100% | 1018 hPa | - | - | - | - |
| 1778193853 | 19.44° C | 100% | 1017.8 hPa | - | - | - | - |
| 1778193279 | 18.89° C | 100% | 1017.8 hPa | - | - | - | - |
* Rain since midnight (hover to see other rain measurements)
** Current wind speed in m/s (hover to see current wind gust speed)